createdAt,value
2023-02-03T00:00:02.116Z,1.3
2023-02-03T00:20:02.776Z,1.5
2023-02-03T00:40:03.105Z,1.6
2023-02-03T01:00:02.588Z,1.6
2023-02-03T01:20:03.103Z,1.8
2023-02-03T01:40:02.363Z,1.9
2023-02-03T02:00:02.630Z,2.1
2023-02-03T02:20:03.252Z,2.2
2023-02-03T02:40:02.778Z,2.3
2023-02-03T03:00:02.050Z,2.3
2023-02-03T03:20:02.510Z,2.3
2023-02-03T03:40:02.754Z,2.1
2023-02-03T04:00:02.023Z,2.1
2023-02-03T04:20:02.557Z,2.1
2023-02-03T04:40:02.801Z,2.4
2023-02-03T05:00:02.161Z,2.6
2023-02-03T05:20:02.695Z,2.9
2023-02-03T05:40:03.090Z,3.2
2023-02-03T06:00:02.589Z,3.5
2023-02-03T06:20:02.878Z,4
2023-02-03T06:40:02.275Z,4.3
2023-02-03T07:00:02.541Z,4.9
2023-02-03T07:20:03.177Z,5.3
2023-02-03T07:40:02.634Z,6.2
2023-02-03T08:00:03.303Z,6.5
2023-02-03T08:20:02.198Z,6.9
2023-02-03T08:40:02.492Z,7
2023-02-03T09:00:04.349Z,7.1
2023-02-03T09:20:02.840Z,7.2
2023-02-03T09:40:03.265Z,7.3
2023-02-03T10:00:03.291Z,7.5
2023-02-03T10:20:02.976Z,7.7
2023-02-03T10:40:02.412Z,7.9
2023-02-03T11:00:03.074Z,7.8
2023-02-03T11:20:02.500Z,7.5
2023-02-03T11:40:02.945Z,7.6
2023-02-03T12:00:02.437Z,7.8
2023-02-03T12:20:02.857Z,8.5
2023-02-03T12:40:02.539Z,8.4
2023-02-03T13:00:02.821Z,8.3
2023-02-03T13:20:02.283Z,6.2
2023-02-03T13:40:02.565Z,6.1
2023-02-03T14:00:03.106Z,6.3
2023-02-03T14:20:02.962Z,6.8
2023-02-03T14:40:04.123Z,6.8
2023-02-03T15:00:03.263Z,7.1
2023-02-03T15:20:03.353Z,7.1
2023-02-03T15:40:03.097Z,7.1
2023-02-03T16:00:02.682Z,6.9
2023-02-03T16:20:02.417Z,7.1
2023-02-03T16:40:02.914Z,7.1
2023-02-03T17:00:03.360Z,7.1
2023-02-03T17:20:03.076Z,7.1
2023-02-03T18:00:02.548Z,7.2
2023-02-03T18:20:03.220Z,7.1
2023-02-03T18:40:02.673Z,7.1
2023-02-03T19:00:03.691Z,7.1
2023-02-03T19:20:02.344Z,7.1
2023-02-03T19:40:02.735Z,7.1
2023-02-03T20:00:02.955Z,6.9
2023-02-03T20:20:02.788Z,6.8
2023-02-03T20:40:02.204Z,6.6
2023-02-03T21:00:03.319Z,6.5
2023-02-03T21:20:02.925Z,6.3
2023-02-03T21:40:02.239Z,5.7
2023-02-03T22:00:02.782Z,4.9
2023-02-03T22:20:02.231Z,4.7
2023-02-03T22:40:02.626Z,4.5
2023-02-03T23:00:02.982Z,4.3
2023-02-03T23:20:02.481Z,4.2
2023-02-03T23:40:02.863Z,4
